METAR stanice u blizini

 

LYBE - Beograd / Surčin, Srbija
Ažurirano: 22/05/2018 08:00
Vedro
Vedro
 Pravac vetra JI
Vetar: JI 22 km/h
Temperatura: 20°C
Tačka rose: 15°C
Vlažnost: 73%
Pritisak: 1016 hPa
Pregled: Vedro
Vidljivost: greater than 10 km
2018/05/22 06:00 LYBE 220600Z 14012KT CAVOK 20/15 Q1016 NOSIG
LYBT - Beograd / Batajnica, Srbija
Ažurirano: 22/05/2018 08:00
Vedro
Vedro
 Pravac vetra IJI
Vetar: IJI 20 km/h
Temperatura: 20°C
Tačka rose: 15°C
Vlažnost: 73%
Pritisak: 1016 hPa
Pregled: Vedro
Vidljivost: greater than 10 km
2018/05/22 06:00 LYBT 220600Z 11011KT CAVOK 20/15 Q1016 NOSIG
LYVR - Vršac, Srbija
Ažurirano: 22/05/2018 08:00
Vedro
Vedro
 Pravac vetra JI
Vetar: JI 39 km/h, Maks.: 72 km/h
Temperatura: 19°C
Tačka rose: 12°C
Vlažnost: 64%
Pritisak: 1016 hPa
Pregled: Vedro
Vidljivost: greater than 10 km
2018/05/22 06:00 LYVR 220600Z 14021G39KT CAVOK 19/12 Q1016 NOSIG
 
LYKV - Lađevci, Srbija
Ažurirano: 22/05/2018 08:00
Mostly Cloudy
Mostly Cloudy
 Pravac vetra J
Vetar: J 6 km/h
Temperatura: 15°C
Tačka rose: 15°C
Vlažnost: 100%
Pritisak: 1017 hPa
Oblaci: Mostly Cloudy
Vidljivost: 6 km
Cloud details: Mostly Cloudy 152 m
2018/05/22 06:00 LYKV 220600Z 17003KT 080V210 6000 BKN005 15/15 Q1017 BECMG SCT030
LYNI - Niš, Srbija
Ažurirano: 22/05/2018 08:00
Partly Cloudy
Partly Cloudy
 Pravac vetra JJZ
Vetar: JJZ 7 km/h
Temperatura: 17°C
Tačka rose: 15°C
Vlažnost: 88%
Pritisak: 1017 hPa
Oblaci: Partly Cloudy
Vidljivost: 8 km
Cloud details: Partly Cloudy 305 m
2018/05/22 06:00 LYNI 220600Z 21004KT 130V280 8000 3000S SCT010 17/15 Q1017 NOSIG
BKPR - Priština, Srbija
Ažurirano: 22/05/2018 08:00
Mist, Pretežno oblačno
Mist, Pretežno oblačno
 Pravac vetra varies
Vetar: varies 4 km/h
Temperatura: 14°C
Tačka rose: 12°C
Vlažnost: 88%
Pritisak: 1018 hPa
Pregled: Mist
Oblaci: Mostly Cloudy
Vidljivost: 2 km
Cloud details: Partly Cloudy 122 m
Mostly Cloudy 762 m
2018/05/22 06:00 BKPR 220600Z VRB02KT 1500 BR SCT004 BKN025 14/12 Q1018 BECMG 5000
 
LHPP - Pecs / Pogany, Hungary
Ažurirano: 22/05/2018 07:45
Vedro
Vedro
 Pravac vetra I
Vetar: I 11 km/h
Temperatura: 17°C
Tačka rose: 14°C
Vlažnost: 83%
Pritisak: 1015 hPa
Pregled: Vedro
Vidljivost: greater than 10 km
2018/05/22 05:45 LHPP 220545Z 09006KT CAVOK 17/14 Q1015
LHUD - Szeged, Hungary
Ažurirano: 22/05/2018 07:45
Vedro
Vedro
 Pravac vetra IJI
Vetar: IJI 13 km/h
Temperatura: 19°C
Tačka rose: 15°C
Vlažnost: 78%
Pritisak: 1017 hPa
Pregled: Vedro
Vidljivost: greater than 10 km
2018/05/22 05:45 LHUD 220545Z 12007KT CAVOK 19/15 Q1017
LRTR - Timisoara, Romania
Ažurirano: 22/05/2018 08:00
Vedro
Vedro
 Pravac vetra IJI
Vetar: IJI 17 km/h
Temperatura: 19°C
Tačka rose: 15°C
Vlažnost: 78%
Pritisak: 1016 hPa
Pregled: Vedro
Vidljivost: greater than 10 km
2018/05/22 06:00 LRTR 220600Z 11009KT CAVOK 19/15 Q1016
 
LRCV - Craiova, Romania
Ažurirano: 22/05/2018 08:00
Vedro
Vedro
 Pravac vetra ISI
Vetar: ISI 26 km/h
Temperatura: 15°C
Tačka rose: 11°C
Vlažnost: 77%
Pritisak: 1019 hPa
Pregled: Vedro
Vidljivost: greater than 10 km
2018/05/22 06:00 LRCV 220600Z 06014KT CAVOK 15/11 Q1019 R09/19//95
LBSF - Sofia, Bulgaria
Ažurirano: 22/05/2018 08:00
Few Clouds
Few Clouds
 Pravac vetra IJI
Vetar: IJI 28 km/h
Temperatura: 16°C
Tačka rose: 12°C
Vlažnost: 77%
Pritisak: 1019 hPa
Oblaci: Few Clouds
Vidljivost: 10 km
Cloud details: Few Clouds 914 m
2018/05/22 06:00 LBSF 220600Z 11015KT 9999 FEW030 16/12 Q1019 NOSIG
LWSK - Skoplje, Makedonija
Ažurirano: 22/05/2018 08:00
Few Clouds
Few Clouds
 Pravac vetra calm
Vetar: Tišina
Temperatura: 18°C
Tačka rose: 16°C
Vlažnost: 88%
Pritisak: 1018 hPa
Oblaci: Few Clouds
Vidljivost: 10 km
Cloud details: Few Clouds 122 m
2018/05/22 06:00 LWSK 220600Z 00000KT 9999 FEW004 18/16 Q1018 NOSIG
 
LYPG - Podgorica, Crna Gora
Ažurirano: 01/01/1970 01:00
NOT Current
unable to load LYPG data RC=404 Not Found
unable to load LYPG data RC=404 Not Found
 
LQSA - Sarajevo, Bosna i Hercegovina
Ažurirano: 22/05/2018 08:00
Oblačno
Oblačno
 Pravac vetra varies
Vetar: varies 4 km/h
Temperatura: 12°C
Tačka rose: 11°C
Vlažnost: 94%
Pritisak: 1016 hPa
Oblaci: Oblačno
Vidljivost: 6 km
Cloud details: Oblačno 213 m
2018/05/22 06:00 LQSA 220600Z VRB02KT 6000 OVC007 12/11 Q1016 BECMG BKN010
LDOS - Osijek, Hrvatksa
Ažurirano: 22/05/2018 08:00
Vedro
Vedro
 Pravac vetra IJI
Vetar: IJI 15 km/h
Temperatura: 18°C
Tačka rose: 14°C
Vlažnost: 78%
Pritisak: 1015 hPa
Pregled: Vedro
Vidljivost: greater than 10 km
2018/05/22 06:00 LDOS 220600Z 11008KT CAVOK 18/14 Q1015